Time;durP1;ratioP1;P1;durP2;ratioP2;P2;SDS_P1;SDS_P2;PMS_P1;PMS_P2;Temp;Humidity;BMP_temperature;BMP_pressure;BME280_temperature;BME280_humidity;BME280_pressure;Samples;Min_cycle;Max_cycle;Signal;HPM_P1;HPM_P2
2023/01/08 00:00:36;;;;;;;14.03;9.83;;;;;;;4.83;100.00;152604.16;4998052;28;20460;-84
2023/01/08 00:03:21;;;;;;;12.47;8.60;;;;;;;4.81;100.00;152599.03;4987131;28;20947;-84
2023/01/08 00:06:10;;;;;;;12.00;8.73;;;;;;;4.77;100.00;152588.69;4999185;28;21088;-84
2023/01/08 00:08:56;;;;;;;11.80;9.13;;;;;;;4.76;100.00;152584.84;4991846;28;20788;-84
2023/01/08 00:11:43;;;;;;;10.83;8.90;;;;;;;4.75;100.00;152583.56;4998403;28;20455;-84
2023/01/08 00:14:30;;;;;;;10.20;8.00;;;;;;;4.76;100.00;152584.84;4996030;28;20453;-84
2023/01/08 00:17:15;;;;;;;11.90;8.37;;;;;;;4.76;100.00;152586.16;4995960;28;20553;-84
2023/01/08 00:20:00;;;;;;;9.57;8.10;;;;;;;4.74;100.00;152580.97;5002021;28;20494;-84
2023/01/08 00:22:49;;;;;;;10.30;8.10;;;;;;;4.79;100.00;152592.59;4996558;28;20445;-84
2023/01/08 00:25:35;;;;;;;11.13;9.87;;;;;;;4.77;100.00;152588.69;4995562;28;20438;-84
2023/01/08 00:28:20;;;;;;;13.33;9.30;;;;;;;4.79;100.00;152593.84;4995113;28;20452;-84
2023/01/08 00:31:06;;;;;;;10.90;8.60;;;;;;;4.81;100.00;152599.03;4997899;28;20445;-84
2023/01/08 00:33:51;;;;;;;9.53;7.90;;;;;;;4.72;100.00;152575.81;4999459;28;20523;-84
2023/01/08 00:36:36;;;;;;;9.07;8.10;;;;;;;4.73;100.00;152577.13;4995822;28;20465;-84
2023/01/08 00:39:23;;;;;;;8.40;7.60;;;;;;;4.72;100.00;152574.50;5014558;28;21046;-84
2023/01/08 00:42:09;;;;;;;8.10;6.77;;;;;;;4.74;100.00;152580.97;4996556;28;20436;-84
2023/01/08 00:44:54;;;;;;;9.33;8.13;;;;;;;4.71;100.00;152573.22;4991521;28;20460;-84
2023/01/08 00:47:40;;;;;;;8.20;7.40;;;;;;;4.69;100.00;152568.06;5010187;28;20424;-84
2023/01/08 00:50:26;;;;;;;9.07;7.77;;;;;;;4.70;100.00;152570.66;4993673;28;20501;-84
2023/01/08 00:53:11;;;;;;;12.70;8.00;;;;;;;4.74;100.00;152580.97;4993776;28;20583;-84
2023/01/08 00:56:01;;;;;;;10.27;8.70;;;;;;;4.76;100.00;152586.16;5000547;28;20417;-84
2023/01/08 00:58:46;;;;;;;9.13;6.80;;;;;;;4.85;100.00;152608.03;5005940;28;20460;-84
2023/01/08 01:01:31;;;;;;;9.03;7.53;;;;;;;4.85;100.00;152609.31;5004965;28;20465;-84
2023/01/08 01:04:17;;;;;;;8.30;7.07;;;;;;;4.92;100.00;152626.09;4993601;28;20953;-84
2023/01/08 01:07:02;;;;;;;7.70;6.50;;;;;;;4.97;100.00;152637.69;4994803;28;20552;-85
2023/01/08 01:09:47;;;;;;;9.20;7.77;;;;;;;5.00;100.00;152646.72;4984936;28;20473;-83
2023/01/08 01:12:36;;;;;;;8.80;6.80;;;;;;;4.97;100.00;152638.97;4992048;28;20557;-84
2023/01/08 01:15:22;;;;;;;9.80;7.07;;;;;;;4.98;100.00;152641.53;4998042;28;20450;-84
2023/01/08 01:18:08;;;;;;;9.50;6.07;;;;;;;4.97;100.00;152638.97;5004980;28;20455;-84
2023/01/08 01:20:53;;;;;;;7.83;6.60;;;;;;;5.03;100.00;152654.41;4992396;28;20551;-84
2023/01/08 01:23:38;;;;;;;8.57;7.20;;;;;;;4.98;100.00;152640.28;4994402;28;20940;-84
2023/01/08 01:26:25;;;;;;;8.53;6.93;;;;;;;4.96;100.00;152635.06;4994504;28;20798;-84
2023/01/08 01:29:11;;;;;;;9.57;7.73;;;;;;;4.91;100.00;152624.78;4989912;28;20511;-85
2023/01/08 01:31:57;;;;;;;7.70;6.43;;;;;;;4.93;100.00;152628.63;4995180;28;20783;-84
2023/01/08 01:34:42;;;;;;;7.93;7.07;;;;;;;4.92;100.00;152627.34;4983730;28;20496;-84
2023/01/08 01:37:27;;;;;;;9.63;7.13;;;;;;;4.91;100.00;152623.50;4993903;28;20448;-84
2023/01/08 01:40:13;;;;;;;7.30;6.50;;;;;;;4.92;100.00;152626.09;4994230;28;20424;-84
2023/01/08 01:42:58;;;;;;;8.63;6.77;;;;;;;4.95;100.00;152632.53;4992632;28;20808;-84
2023/01/08 01:45:45;;;;;;;8.63;6.53;;;;;;;4.93;100.00;152629.94;5005225;28;20413;-85
2023/01/08 01:48:30;;;;;;;8.00;6.97;;;;;;;4.92;100.00;152626.09;4985622;28;20449;-84
2023/01/08 01:51:16;;;;;;;7.27;6.37;;;;;;;4.97;100.00;152637.69;4996241;28;20436;-84
2023/01/08 01:54:02;;;;;;;8.97;7.80;;;;;;;4.93;100.00;152629.94;4995778;28;20452;-84
2023/01/08 01:56:48;;;;;;;8.33;7.43;;;;;;;4.95;100.00;152632.53;4988601;28;20484;-84
2023/01/08 01:59:33;;;;;;;8.53;7.27;;;;;;;4.93;100.00;152628.63;4994403;28;20444;-84
2023/01/08 02:02:20;;;;;;;11.33;8.13;;;;;;;4.91;100.00;152624.78;4994626;28;20604;-84
2023/01/08 02:05:07;;;;;;;11.10;8.57;;;;;;;4.91;100.00;152624.78;4994019;28;20596;-85
2023/01/08 02:07:56;;;;;;;8.17;7.20;;;;;;;4.90;100.00;152622.19;4997944;28;20897;-84
2023/01/08 02:10:46;;;;;;;8.00;7.20;;;;;;;4.93;100.00;152629.94;5008496;28;20523;-84
2023/01/08 02:13:35;;;;;;;9.80;7.50;;;;;;;4.96;100.00;152636.38;4988375;28;20452;-84
2023/01/08 02:16:26;;;;;;;9.60;7.40;;;;;;;5.04;100.00;152655.69;4993772;28;20516;-84
2023/01/08 02:19:22;;;;;;;8.23;6.90;;;;;;;5.07;100.00;152663.44;4993506;28;20434;-84
2023/01/08 02:22:24;;;;;;;9.33;7.90;;;;;;;5.09;100.00;152669.88;4998447;28;20995;-83
2023/01/08 02:25:11;;;;;;;8.83;6.70;;;;;;;5.13;100.00;152678.94;4988693;28;20508;-84
2023/01/08 02:28:00;;;;;;;7.80;6.90;;;;;;;5.16;100.00;152686.66;4987904;28;20788;-84
2023/01/08 02:30:45;;;;;;;8.97;7.03;;;;;;;5.21;100.00;152700.84;4999747;28;20440;-84
2023/01/08 02:33:32;;;;;;;7.23;6.43;;;;;;;5.27;100.00;152715.03;5007338;28;20528;-84
2023/01/08 02:36:24;;;;;;;10.00;7.00;;;;;;;5.32;100.00;152729.16;5000539;28;20932;-84
2023/01/08 02:39:38;;;;;;;7.00;6.30;;;;;;;5.35;100.00;152735.63;4986374;28;20535;-84
2023/01/08 02:42:28;;;;;;;8.90;6.77;;;;;;;5.35;100.00;152736.91;4987834;28;21123;-84
2023/01/08 02:45:21;;;;;;;8.57;6.47;;;;;;;5.34;100.00;152733.06;5007662;28;20452;-84
2023/01/08 02:48:10;;;;;;;9.70;6.40;;;;;;;5.30;100.00;152722.72;5003704;28;20653;-84
2023/01/08 02:50:59;;;;;;;6.77;6.10;;;;;;;5.31;100.00;152725.31;4990959;28;20438;-84
2023/01/08 02:53:47;;;;;;;6.80;6.07;;;;;;;5.28;100.00;152718.88;4996559;28;20499;-83
2023/01/08 02:56:36;;;;;;;7.30;6.60;;;;;;;5.29;100.00;152720.19;4997973;28;20456;-84
2023/01/08 02:59:22;;;;;;;7.13;6.43;;;;;;;5.31;100.00;152726.63;4994456;28;20453;-84
2023/01/08 03:02:09;;;;;;;7.67;6.70;;;;;;;5.31;100.00;152726.63;4999251;28;20464;-84
2023/01/08 03:05:00;;;;;;;8.10;6.50;;;;;;;5.30;100.00;152724.03;5012509;28;20779;-84
2023/01/08 03:07:45;;;;;;;8.10;6.70;;;;;;;5.30;100.00;152724.03;5005964;28;20431;-84
2023/01/08 03:10:30;;;;;;;8.27;7.40;;;;;;;5.30;100.00;152724.03;5000003;28;20986;-84
2023/01/08 03:13:19;;;;;;;8.10;6.40;;;;;;;5.31;100.00;152725.31;4999936;28;20876;-84
2023/01/08 03:16:08;;;;;;;9.37;6.50;;;;;;;5.29;100.00;152720.19;4995604;28;20468;-84
2023/01/08 03:18:58;;;;;;;8.13;6.90;;;;;;;5.29;100.00;152721.47;4996859;28;20458;-83
2023/01/08 03:21:44;;;;;;;6.70;6.00;;;;;;;5.30;100.00;152724.03;5002090;28;20465;-83
2023/01/08 03:24:33;;;;;;;9.57;7.80;;;;;;;5.29;100.00;152721.47;4993056;28;20449;-83
2023/01/08 03:27:22;;;;;;;8.10;7.03;;;;;;;5.29;100.00;152720.19;4993193;28;20461;-83
2023/01/08 03:30:09;;;;;;;7.80;6.57;;;;;;;5.31;100.00;152726.63;5006664;28;20460;-83
2023/01/08 03:32:56;;;;;;;8.60;6.87;;;;;;;5.33;100.00;152730.47;4995889;28;20448;-83
2023/01/08 03:35:47;;;;;;;7.60;6.13;;;;;;;5.36;100.00;152738.22;4994532;28;20836;-83
2023/01/08 03:38:35;;;;;;;7.83;6.57;;;;;;;5.40;100.00;152748.56;5006663;28;20782;-83
2023/01/08 03:41:22;;;;;;;8.03;6.90;;;;;;;5.41;100.00;152752.41;5001408;28;20452;-83
2023/01/08 03:44:07;;;;;;;7.80;5.97;;;;;;;5.42;100.00;152753.69;4994883;28;20452;-83
2023/01/08 03:46:54;;;;;;;7.30;5.60;;;;;;;5.43;100.00;152756.25;5005546;28;20452;-83
2023/01/08 03:49:41;;;;;;;14.73;6.90;;;;;;;5.46;100.00;152764.00;4983144;28;20810;-83
2023/01/08 03:52:31;;;;;;;7.40;6.30;;;;;;;5.48;100.00;152769.19;4980525;28;20434;-83
2023/01/08 03:55:16;;;;;;;7.30;6.23;;;;;;;5.50;100.00;152774.31;4998192;28;20460;-83
2023/01/08 03:58:02;;;;;;;6.40;5.80;;;;;;;5.51;100.00;152776.88;5000206;28;20430;-83
2023/01/08 04:00:47;;;;;;;6.63;5.80;;;;;;;5.50;100.00;152774.31;4997756;28;20947;-83
2023/01/08 04:03:32;;;;;;;7.43;6.50;;;;;;;5.47;100.00;152766.59;5006472;28;21019;-83
2023/01/08 04:06:18;;;;;;;8.60;6.67;;;;;;;5.45;100.00;152761.44;4993746;28;20444;-83
2023/01/08 04:09:04;;;;;;;9.50;7.40;;;;;;;5.42;100.00;152753.69;4994681;28;20513;-83
2023/01/08 04:11:50;;;;;;;7.80;6.87;;;;;;;5.43;100.00;152757.53;4978854;28;20457;-83
2023/01/08 04:14:35;;;;;;;8.67;6.83;;;;;;;5.47;100.00;152766.59;4999398;28;20432;-83
2023/01/08 04:17:21;;;;;;;6.87;6.13;;;;;;;5.46;100.00;152765.28;5010139;28;20442;-83
2023/01/08 04:20:07;;;;;;;7.77;6.53;;;;;;;5.45;100.00;152761.44;4990844;28;20666;-83
2023/01/08 04:22:52;;;;;;;7.40;6.70;;;;;;;5.44;100.00;152758.84;4997110;28;20681;-83
2023/01/08 04:25:39;;;;;;;6.77;6.07;;;;;;;5.48;100.00;152769.19;4995386;28;20405;-83
2023/01/08 04:28:26;;;;;;;8.20;6.30;;;;;;;5.49;100.00;152773.03;5003970;28;20817;-83
2023/01/08 04:31:12;;;;;;;6.70;6.00;;;;;;;5.50;100.00;152775.63;5002479;28;20446;-83
2023/01/08 04:33:57;;;;;;;8.50;6.60;;;;;;;5.52;100.00;152780.78;5002828;28;20433;-82
2023/01/08 04:36:42;;;;;;;9.10;6.77;;;;;;;5.59;100.00;152797.50;4995113;28;20976;-83
2023/01/08 04:39:28;;;;;;;7.63;6.20;;;;;;;5.55;100.00;152787.22;4992611;28;21387;-83
2023/01/08 04:42:14;;;;;;;7.50;6.53;;;;;;;5.57;100.00;152792.38;5007589;28;20888;-83
2023/01/08 04:45:00;;;;;;;8.60;6.67;;;;;;;5.54;100.00;152784.63;4995555;28;20425;-83
2023/01/08 04:47:45;;;;;;;7.57;6.83;;;;;;;5.50;100.00;152775.63;4986145;28;20516;-83
2023/01/08 04:50:31;;;;;;;6.93;6.23;;;;;;;5.48;100.00;152769.19;5004683;28;20619;-83
2023/01/08 04:53:16;;;;;;;6.83;6.10;;;;;;;5.56;100.00;152789.75;5012737;28;21016;-83
2023/01/08 04:56:04;;;;;;;8.37;6.50;;;;;;;5.59;100.00;152796.25;4996239;28;20559;-83
2023/01/08 04:58:51;;;;;;;6.10;4.53;;;;;;;5.72;100.00;152831.03;4997149;28;20457;-84
2023/01/08 05:01:36;;;;;;;5.07;4.57;;;;;;;6.00;100.00;152902.03;4986195;28;20988;-84
2023/01/08 05:04:22;;;;;;;6.80;4.37;;;;;;;6.16;100.00;152943.31;4997512;28;20448;-84
2023/01/08 05:07:07;;;;;;;5.10;4.07;;;;;;;6.35;100.00;152991.06;4999093;28;20964;-84
2023/01/08 05:09:53;;;;;;;3.67;3.10;;;;;;;6.38;100.00;153000.06;4996398;28;20919;-84
2023/01/08 05:12:38;;;;;;;4.23;3.23;;;;;;;6.56;100.00;153045.25;4985376;28;20433;-84
2023/01/08 05:15:25;;;;;;;5.60;3.00;;;;;;;6.84;100.00;153116.22;4990087;28;20897;-84
2023/01/08 05:18:11;;;;;;;3.00;2.70;;;;;;;6.90;100.00;153133.03;4994184;28;20943;-84
2023/01/08 05:21:00;;;;;;;4.30;3.10;;;;;;;6.87;100.00;153125.28;4993808;28;20450;-85
2023/01/08 05:23:50;;;;;;;3.87;2.13;;;;;;;6.87;100.00;153125.28;4990626;28;20454;-85
2023/01/08 05:26:36;;;;;;;3.00;2.70;;;;;;;6.95;100.00;153145.94;4990776;28;20441;-84
2023/01/08 05:29:21;;;;;;;3.23;2.50;;;;;;;6.92;100.00;153138.19;4983236;28;21030;-84
2023/01/08 05:32:14;;;;;;;3.10;2.60;;;;;;;7.01;100.00;153161.44;4992825;28;20915;-84
2023/01/08 05:35:01;;;;;;;3.10;2.47;;;;;;;6.97;100.00;153149.78;4992800;28;20536;-84
2023/01/08 05:37:49;;;;;;;3.10;2.53;;;;;;;7.00;100.00;153158.84;4988646;28;20459;-83
2023/01/08 05:40:34;;;;;;;2.70;2.50;;;;;;;7.01;100.00;153161.44;4995847;28;20437;-84
2023/01/08 05:43:20;;;;;;;3.23;2.23;;;;;;;7.01;100.00;153161.44;4996143;28;20464;-84
2023/01/08 05:46:05;;;;;;;2.10;1.90;;;;;;;7.10;100.00;153184.66;4993921;28;20516;-83
2023/01/08 05:48:52;;;;;;;2.43;2.23;;;;;;;7.10;100.00;153183.34;4997812;28;20544;-83
2023/01/08 05:51:37;;;;;;;2.40;2.20;;;;;;;7.10;100.00;153183.34;4987122;28;20512;-84
2023/01/08 05:54:23;;;;;;;1.97;1.70;;;;;;;7.12;100.00;153189.81;4992172;28;20449;-84
2023/01/08 05:57:08;;;;;;;3.60;2.17;;;;;;;7.15;100.00;153196.25;5005571;28;20532;-84
2023/01/08 05:59:54;;;;;;;2.90;2.00;;;;;;;7.13;100.00;153192.41;4990976;28;20448;-84
2023/01/08 06:02:39;;;;;;;2.73;2.37;;;;;;;7.04;100.00;153169.16;4989999;28;20472;-84
2023/01/08 06:05:26;;;;;;;2.30;1.93;;;;;;;7.13;100.00;153191.09;4985852;28;20450;-85
2023/01/08 06:08:11;;;;;;;2.63;2.40;;;;;;;7.08;100.00;153179.50;4981263;28;20448;-84
2023/01/08 06:10:59;;;;;;;2.63;2.00;;;;;;;7.13;100.00;153192.41;4984221;28;20462;-84
2023/01/08 06:13:44;;;;;;;2.10;1.67;;;;;;;7.19;100.00;153207.91;4980944;28;20449;-84
2023/01/08 06:16:30;;;;;;;2.70;2.20;;;;;;;7.16;100.00;153198.84;4984259;28;20441;-84
2023/01/08 06:19:17;;;;;;;2.60;2.40;;;;;;;7.13;100.00;153192.41;4980934;28;20444;-84
2023/01/08 06:22:04;;;;;;;2.53;1.87;;;;;;;7.08;100.00;153179.50;4979453;28;20515;-84
2023/01/08 06:24:49;;;;;;;2.03;1.83;;;;;;;7.05;100.00;153171.75;4982218;28;20934;-84
2023/01/08 06:27:35;;;;;;;2.43;1.97;;;;;;;7.10;100.00;153184.66;4982639;28;20444;-84
2023/01/08 06:30:20;;;;;;;2.10;1.53;;;;;;;7.11;100.00;153187.25;4986482;28;20596;-84
2023/01/08 06:33:06;;;;;;;3.20;2.13;;;;;;;7.06;100.00;153174.34;4985328;28;21183;-84
2023/01/08 06:35:52;;;;;;;2.10;1.80;;;;;;;7.10;100.00;153184.66;4979567;28;21036;-84
2023/01/08 06:38:38;;;;;;;1.83;1.53;;;;;;;7.12;100.00;153188.56;4981102;28;20457;-84
2023/01/08 06:41:23;;;;;;;2.37;1.77;;;;;;;7.06;100.00;153174.34;4982507;28;20554;-84
2023/01/08 06:44:09;;;;;;;1.70;1.40;;;;;;;7.09;100.00;153182.09;4978055;28;20446;-85
2023/01/08 06:46:55;;;;;;;2.10;1.70;;;;;;;7.11;100.00;153187.25;4980350;28;20543;-84
2023/01/08 06:49:40;;;;;;;2.30;1.23;;;;;;;7.14;100.00;153195.00;4982106;28;20449;-84
2023/01/08 06:52:26;;;;;;;2.73;1.60;;;;;;;7.20;100.00;153210.47;4994744;28;20449;-84
2023/01/08 06:55:12;;;;;;;1.83;1.50;;;;;;;7.26;100.00;153224.66;4980272;28;20474;-84
2023/01/08 06:57:58;;;;;;;2.37;1.50;;;;;;;7.23;100.00;153218.22;4989949;28;20868;-84
2023/01/08 07:00:44;;;;;;;2.00;1.60;;;;;;;7.27;100.00;153227.28;4979664;28;20950;-84
2023/01/08 07:03:30;;;;;;;1.80;1.13;;;;;;;7.25;100.00;153223.38;4978397;28;21124;-84
2023/01/08 07:06:19;;;;;;;2.90;1.63;;;;;;;7.28;100.00;153229.88;4980634;28;20581;-84
2023/01/08 07:09:04;;;;;;;2.57;1.40;;;;;;;7.27;100.00;153228.56;4981218;28;20972;-85
2023/01/08 07:11:51;;;;;;;1.60;1.40;;;;;;;7.31;100.00;153238.88;4981603;28;20995;-84
2023/01/08 07:14:36;;;;;;;4.40;1.63;;;;;;;7.28;100.00;153229.88;4981775;28;20462;-84
2023/01/08 07:17:22;;;;;;;2.00;1.50;;;;;;;7.40;100.00;153260.84;4985474;28;20800;-84
2023/01/08 07:20:09;;;;;;;2.20;1.43;;;;;;;7.29;100.00;153233.72;4991769;28;20462;-84
2023/01/08 07:22:54;;;;;;;2.20;1.87;;;;;;;7.29;100.00;153232.44;4985116;28;20464;-84
2023/01/08 07:25:40;;;;;;;2.00;1.60;;;;;;;7.30;100.00;153236.34;4985584;28;20445;-84
2023/01/08 07:28:27;;;;;;;2.20;1.37;;;;;;;7.32;100.00;153241.47;4982151;28;20570;-84
2023/01/08 07:31:12;;;;;;;3.00;1.77;;;;;;;7.37;100.00;153253.09;4993634;28;20509;-84
2023/01/08 07:33:57;;;;;;;3.47;1.63;;;;;;;7.33;100.00;153242.78;4981257;28;20469;-83
2023/01/08 07:36:43;;;;;;;2.70;1.70;;;;;;;7.31;100.00;153238.88;4982868;28;21324;-84
2023/01/08 07:39:28;;;;;;;2.30;1.80;;;;;;;7.31;100.00;153237.59;4985733;28;20504;-84
2023/01/08 07:42:17;;;;;;;1.67;1.53;;;;;;;7.28;100.00;153231.13;4980526;28;20475;-84
2023/01/08 07:45:25;;;;;;;1.73;1.20;;;;;;;7.30;100.00;153235.03;4980340;28;20459;-84
2023/01/08 07:48:14;;;;;;;2.00;1.40;;;;;;;7.25;100.00;153223.38;4979079;28;20444;-84
2023/01/08 07:51:04;;;;;;;1.43;1.33;;;;;;;7.22;100.00;153215.66;4980970;28;20804;-84
2023/01/08 07:53:55;;;;;;;2.23;1.50;;;;;;;7.25;100.00;153222.13;4981676;28;20440;-84
2023/01/08 07:56:40;;;;;;;1.70;1.30;;;;;;;7.23;100.00;153218.22;4985397;28;20469;-84
2023/01/08 07:59:26;;;;;;;1.73;1.43;;;;;;;7.18;100.00;153205.31;4985839;28;20675;-84
2023/01/08 08:02:13;;;;;;;2.60;1.63;;;;;;;7.25;100.00;153222.13;4980551;28;20711;-84
2023/01/08 08:04:58;;;;;;;2.97;1.97;;;;;;;7.20;100.00;153209.22;4983076;28;20443;-84
2023/01/08 08:07:44;;;;;;;2.80;1.37;;;;;;;7.22;100.00;153215.66;4985128;28;20444;-84
2023/01/08 08:10:29;;;;;;;1.73;1.43;;;;;;;7.23;100.00;153218.22;4981786;28;20933;-84
2023/01/08 08:13:15;;;;;;;1.70;1.40;;;;;;;7.25;100.00;153222.13;4984005;28;20578;-84
2023/01/08 08:16:04;;;;;;;1.90;1.70;;;;;;;7.23;100.00;153216.91;4982485;28;20476;-84
2023/01/08 08:18:51;;;;;;;2.50;1.53;;;;;;;7.28;100.00;153231.13;4985423;28;20438;-84
2023/01/08 08:21:36;;;;;;;2.20;1.80;;;;;;;7.26;100.00;153225.97;4983591;28;21356;-84
2023/01/08 08:24:22;;;;;;;2.70;2.00;;;;;;;7.20;100.00;153209.22;4991273;28;20779;-85
2023/01/08 08:27:07;;;;;;;1.97;1.70;;;;;;;7.15;100.00;153197.56;4989625;28;20512;-84
2023/01/08 08:29:53;;;;;;;2.07;1.60;;;;;;;7.18;100.00;153205.31;4981613;28;20830;-84
2023/01/08 08:32:38;;;;;;;2.57;2.00;;;;;;;7.18;100.00;153205.31;4984635;28;20469;-84
2023/01/08 08:35:25;;;;;;;2.30;2.10;;;;;;;7.15;100.00;153196.25;4985624;28;20481;-84
2023/01/08 08:38:10;;;;;;;2.37;2.03;;;;;;;7.21;100.00;153213.06;4986510;28;21076;-84
2023/01/08 08:40:56;;;;;;;2.77;2.50;;;;;;;7.18;100.00;153205.31;4995078;28;20449;-84
2023/01/08 08:43:42;;;;;;;3.20;2.17;;;;;;;7.21;100.00;153211.78;4981258;28;20461;-84
2023/01/08 08:46:29;;;;;;;2.13;1.80;;;;;;;7.22;100.00;153215.66;4982746;28;20960;-84
2023/01/08 08:49:14;;;;;;;2.63;1.93;;;;;;;7.21;100.00;153213.06;4998730;28;20443;-84
2023/01/08 08:52:01;;;;;;;2.97;2.47;;;;;;;7.24;100.00;153220.81;4980065;28;20587;-84
2023/01/08 08:54:46;;;;;;;2.90;1.97;;;;;;;7.18;100.00;153205.31;4984380;28;20825;-84
2023/01/08 08:57:31;;;;;;;1.90;1.57;;;;;;;7.23;100.00;153218.22;4984934;28;20456;-84
2023/01/08 09:00:17;;;;;;;1.93;1.60;;;;;;;7.27;100.00;153228.56;4990209;28;20434;-84
2023/01/08 09:03:02;;;;;;;3.40;1.77;;;;;;;7.24;100.00;153219.53;4988065;28;20516;-84
2023/01/08 09:05:47;;;;;;;2.33;1.77;;;;;;;7.26;100.00;153225.97;4999588;28;20460;-84
2023/01/08 09:08:34;;;;;;;2.43;1.77;;;;;;;7.27;100.00;153228.56;4982447;28;20447;-84
2023/01/08 09:11:19;;;;;;;2.13;1.70;;;;;;;7.29;100.00;153233.72;4985350;28;20461;-84
2023/01/08 09:14:04;;;;;;;2.20;1.70;;;;;;;7.28;100.00;153231.13;4991146;28;20599;-84
2023/01/08 09:16:50;;;;;;;2.17;1.97;;;;;;;7.29;100.00;153233.72;4990151;28;20804;-84
2023/01/08 09:19:36;;;;;;;1.90;1.70;;;;;;;7.33;100.00;153242.78;4986907;28;20450;-84
2023/01/08 09:22:21;;;;;;;1.70;1.60;;;;;;;7.35;100.00;153249.25;4983558;28;20566;-84
2023/01/08 09:25:08;;;;;;;2.37;1.83;;;;;;;7.33;100.00;153244.03;4983636;28;20565;-84
2023/01/08 09:27:59;;;;;;;3.83;2.57;;;;;;;7.38;100.00;153254.41;4984602;28;20453;-84
2023/01/08 09:30:44;;;;;;;3.10;2.43;;;;;;;7.41;100.00;153263.44;4989138;28;20469;-84
2023/01/08 09:33:29;;;;;;;3.73;3.03;;;;;;;7.42;100.00;153264.69;4986259;28;20441;-84
2023/01/08 09:36:15;;;;;;;2.40;1.93;;;;;;;7.46;100.00;153276.34;4995614;28;20932;-84
2023/01/08 09:39:00;;;;;;;2.33;2.13;;;;;;;7.52;100.00;153291.81;4998158;28;20448;-84
2023/01/08 09:41:47;;;;;;;2.67;2.10;;;;;;;7.50;100.00;153285.38;4993568;28;20909;-84
2023/01/08 09:44:36;;;;;;;2.60;2.10;;;;;;;7.50;100.00;153286.66;4985505;28;20477;-84
2023/01/08 09:47:25;;;;;;;2.60;2.10;;;;;;;7.62;100.00;153316.41;4981547;28;20453;-84
2023/01/08 09:50:13;;;;;;;2.53;2.03;;;;;;;7.56;100.00;153300.88;4982655;28;20453;-84
2023/01/08 09:52:59;;;;;;;2.17;1.80;;;;;;;7.60;100.00;153311.25;4982356;28;20968;-84
2023/01/08 09:55:56;;;;;;;2.07;1.87;;;;;;;7.63;100.00;153318.94;4983119;28;20490;-84
2023/01/08 09:58:44;;;;;;;3.23;1.77;;;;;;;7.58;100.00;153306.03;4981666;28;20446;-84
2023/01/08 10:01:31;;;;;;;1.80;1.50;;;;;;;7.57;100.00;153303.47;4980636;28;20450;-84
2023/01/08 10:04:19;;;;;;;2.80;1.77;;;;;;;7.60;100.00;153311.25;4983613;28;20798;-85
2023/01/08 10:07:10;;;;;;;4.83;1.70;;;;;;;7.62;100.00;153316.41;4980007;28;20849;-84
2023/01/08 10:09:56;;;;;;;2.80;1.60;;;;;;;7.66;100.00;153328.00;4984997;28;20449;-84
2023/01/08 10:12:41;;;;;;;2.40;1.73;;;;;;;7.63;100.00;153318.94;4982255;28;20540;-84
2023/01/08 10:15:28;;;;;;;4.00;2.40;;;;;;;7.62;100.00;153317.69;4981983;28;20784;-84
2023/01/08 10:18:15;;;;;;;6.77;4.70;;;;;;;7.69;100.00;153334.47;4981511;28;20887;-84
2023/01/08 10:21:00;;;;;;;13.07;8.90;;;;;;;7.68;100.00;153331.84;4984580;28;20804;-84
2023/01/08 10:23:50;;;;;;;11.70;8.10;;;;;;;7.70;100.00;153338.38;4982626;28;21212;-84
2023/01/08 10:26:38;;;;;;;9.10;6.80;;;;;;;7.72;100.00;153342.22;4979898;28;20466;-84
2023/01/08 10:29:23;;;;;;;7.80;5.77;;;;;;;7.70;100.00;153337.06;4984329;28;20537;-84
2023/01/08 10:32:14;;;;;;;6.50;2.17;;;;;;;7.75;100.00;153349.97;4985340;28;20450;-83
2023/01/08 10:35:04;;;;;;;1.90;1.70;;;;;;;7.85;100.00;153375.81;4986589;28;21070;-83
2023/01/08 10:37:50;;;;;;;1.50;1.27;;;;;;;7.82;100.00;153368.03;4981689;28;20488;-83
2023/01/08 10:40:38;;;;;;;2.23;1.20;;;;;;;7.91;100.00;153392.63;4996507;28;20448;-83
2023/01/08 10:43:26;;;;;;;2.13;1.37;;;;;;;7.97;100.00;153408.09;4980924;28;20578;-83
2023/01/08 10:46:16;;;;;;;1.77;1.30;;;;;;;7.96;100.00;153404.22;4980980;28;20438;-83
2023/01/08 10:49:04;;;;;;;1.53;1.17;;;;;;;8.02;100.00;153418.44;4980380;28;20441;-83
2023/01/08 10:51:51;;;;;;;1.73;1.20;;;;;;;8.08;100.00;153433.94;4980371;28;20808;-83
2023/01/08 10:54:38;;;;;;;1.60;1.10;;;;;;;8.08;100.00;153433.94;4980341;28;20577;-83
2023/01/08 10:57:26;;;;;;;1.53;1.10;;;;;;;8.10;100.00;153439.13;4980573;28;20452;-83
2023/01/08 11:00:29;;;;;;;2.20;1.23;;;;;;;8.10;100.00;153440.38;4977780;28;21069;-83
2023/01/08 11:03:29;;;;;;;2.30;1.60;;;;;;;8.11;100.00;153441.69;4979586;28;20538;-83
2023/01/08 11:06:21;;;;;;;1.87;1.47;;;;;;;8.16;100.00;153454.59;4980732;28;20505;-83
2023/01/08 11:09:24;;;;;;;1.40;1.10;;;;;;;8.20;100.00;153466.28;4993344;28;20437;-83
2023/01/08 11:12:28;;;;;;;2.30;1.40;;;;;;;8.23;100.00;153474.03;4978875;28;20533;-83
2023/01/08 11:15:28;;;;;;;2.50;1.50;;;;;;;8.25;100.00;153477.88;4981812;28;20453;-83
2023/01/08 11:18:19;;;;;;;1.30;1.10;;;;;;;8.31;100.00;153493.47;4980949;28;20447;-82
2023/01/08 11:21:10;;;;;;;1.83;1.20;;;;;;;8.34;100.00;153501.22;4981157;28;20500;-83
2023/01/08 11:24:18;;;;;;;1.70;1.10;;;;;;;8.39;100.00;153514.13;4980473;28;20470;-83
2023/01/08 11:27:08;;;;;;;2.30;1.30;;;;;;;8.44;100.00;153528.34;4980531;28;20469;-83
2023/01/08 11:29:59;;;;;;;1.30;1.00;;;;;;;8.47;100.00;153536.06;4983150;28;20445;-84
2023/01/08 11:32:47;;;;;;;1.60;1.17;;;;;;;8.48;100.00;153537.38;4983644;28;20469;-83
2023/01/08 11:35:36;;;;;;;1.70;1.20;;;;;;;8.60;100.00;153567.13;4989347;28;20532;-83
2023/01/08 11:38:21;;;;;;;1.50;1.27;;;;;;;8.62;100.00;153573.59;4985979;28;20568;-82
2023/01/08 11:41:20;;;;;;;2.10;1.43;;;;;;;8.61;100.00;153570.97;4994453;28;20456;-82
2023/01/08 11:44:16;;;;;;;1.83;1.20;;;;;;;8.67;100.00;153586.50;4989799;28;20465;-83
2023/01/08 11:47:07;;;;;;;1.50;1.20;;;;;;;8.64;100.00;153577.44;4990580;28;20962;-83
2023/01/08 11:50:03;;;;;;;1.33;1.00;;;;;;;8.64;100.00;153578.75;4984451;28;20525;-85
2023/01/08 11:52:59;;;;;;;1.40;1.00;;;;;;;8.70;100.00;153592.97;4987456;28;20463;-84
2023/01/08 11:55:53;;;;;;;2.00;1.27;;;;;;;8.71;100.00;153595.56;4998506;28;21014;-82
2023/01/08 11:58:53;;;;;;;1.23;0.97;;;;;;;8.78;100.00;153613.66;4989226;28;20500;-84
2023/01/08 12:01:47;;;;;;;3.53;1.10;;;;;;;8.80;100.00;153618.81;4993406;28;20454;-84
2023/01/08 12:04:55;;;;;;;1.50;1.40;;;;;;;8.75;100.00;153605.91;4985645;28;20945;-84
2023/01/08 12:07:46;;;;;;;1.33;1.10;;;;;;;8.74;100.00;153603.28;4983158;28;20473;-84
2023/01/08 12:10:45;;;;;;;1.70;1.20;;;;;;;8.80;100.00;153618.81;4987536;28;20968;-84
2023/01/08 12:13:39;;;;;;;2.07;1.53;;;;;;;8.81;100.00;153621.41;4983557;28;20808;-84
2023/01/08 12:16:37;;;;;;;1.40;1.10;;;;;;;8.76;100.00;153608.50;4982975;28;20475;-84
2023/01/08 12:19:37;;;;;;;1.27;1.00;;;;;;;8.75;100.00;153607.19;4985568;28;20481;-84
2023/01/08 12:22:31;;;;;;;1.20;0.80;;;;;;;8.75;100.00;153605.91;4981513;28;20462;-84
2023/01/08 12:25:30;;;;;;;1.90;1.50;;;;;;;8.74;100.00;153604.59;4983885;28;20814;-84
2023/01/08 12:28:32;;;;;;;1.50;1.10;;;;;;;8.82;100.00;153623.97;4986340;28;20532;-84
2023/01/08 12:31:29;;;;;;;1.50;1.10;;;;;;;8.83;100.00;153627.88;4982721;28;20471;-84
2023/01/08 12:34:19;;;;;;;1.70;1.00;;;;;;;8.85;100.00;153633.03;4986485;28;20532;-84
2023/01/08 12:37:08;;;;;;;1.60;1.13;;;;;;;8.89;100.00;153642.13;4998896;28;20453;-84
2023/01/08 12:39:59;;;;;;;1.33;0.87;;;;;;;8.87;100.00;153636.94;4981534;28;20513;-84
2023/01/08 12:42:45;;;;;;;1.73;1.07;;;;;;;8.91;100.00;153647.28;4995251;28;20451;-84
2023/01/08 12:45:36;;;;;;;1.90;1.20;;;;;;;8.85;100.00;153631.75;4986308;28;20481;-84
2023/01/08 12:48:25;;;;;;;2.67;2.20;;;;;;;8.87;100.00;153636.94;4981379;28;20547;-84
2023/01/08 12:51:17;;;;;;;2.03;1.70;;;;;;;8.89;100.00;153642.13;4985964;28;20469;-84
2023/01/08 12:54:12;;;;;;;2.03;1.70;;;;;;;8.90;100.00;153644.66;4986220;28;20451;-84
2023/01/08 12:57:06;;;;;;;1.20;0.90;;;;;;;8.88;100.00;153640.81;4983187;28;20516;-84
2023/01/08 12:59:56;;;;;;;1.50;0.93;;;;;;;8.93;100.00;153653.72;4985250;28;20461;-84